Stations météo

réclame
Mon MeteoGroup
Lagunas de Somoza, Espagne (8123): Température de l'air & dewpoint: 14.06.2018 17:00:00 - 20.06.2018 17:00:00 (CEST)Lagunas de Somoza, Espagne (8123): Vitesse du vent & gusts: 14.06.2018 17:00:00 - 20.06.2018 17:00:00 (CEST)Lagunas de Somoza, Espagne (8123): Direction du vent: 14.06.2018 17:00:00 - 20.06.2018 17:00:00 (CEST)Lagunas de Somoza, Espagne (8123): Quantités de précipitations: 14.06.2018 17:00:00 - 20.06.2018 17:00:00 (CEST)
Date & Time tt [°C] td [°C] ff [km/h] ff [knt] fx [km/h] fx [knt] dd rr [mm]
20.06.2018 17:00:00 - - - - - - - -
20.06.2018 16:00:00 26,8 12,8 3 2 15 8 E 0,0
20.06.2018 15:00:00 27,5 13,4 5 3 18 10 NW 0,0
20.06.2018 14:00:00 26,7 13,1 4 2 18 10 WNW -
20.06.2018 13:00:00 25,7 12,9 6 3 16 9 W 0,0
20.06.2018 12:00:00 25,1 14,3 4 2 11 6 WSW 0,0
20.06.2018 11:00:00 23,0 12,6 3 2 9 5 SSW 0,0
20.06.2018 10:00:00 21,8 12,4 2 1 10 6 SW 0,0
20.06.2018 09:00:00 20,0 12,0 1 1 4 2 WSW 0,0
20.06.2018 08:00:00 16,0 13,5 1 0 7 4 SE -
20.06.2018 07:00:00 12,7 11,3 0 0 5 3 SE 0,0
20.06.2018 06:00:00 12,9 11,3 4 2 8 4 SE 0,0
20.06.2018 05:00:00 13,0 10,5 7 4 9 5 ESE 0,0
20.06.2018 04:00:00 13,4 10,4 5 3 7 4 ESE 0,0
20.06.2018 03:00:00 14,3 11,1 4 2 7 4 SE 0,0
20.06.2018 02:00:00 14,4 10,8 3 2 8 4 E -
20.06.2018 01:00:00 15,0 10,2 4 2 8 4 SE 0,0
20.06.2018 00:00:00 16,5 10,1 6 3 11 6 SE 0,0
19.06.2018 23:00:00 18,0 10,1 2 1 6 3 SSE 0,0
19.06.2018 22:00:00 22,0 9,5 4 2 7 4 SSW 0,0
19.06.2018 21:00:00 26,0 9,4 4 2 9 5 WNW 0,0
19.06.2018 20:00:00 26,3 9,2 6 3 11 6 NW -
19.06.2018 19:00:00 25,7 9,5 6 3 16 8 W 0,0
19.06.2018 18:00:00 25,3 9,6 4 2 15 8 WNW 0,0
19.06.2018 17:00:00 24,8 9,5 6 3 19 10 WNW 0,0
19.06.2018 16:00:00 24,2 9,4 5 3 16 9 WNW 0,0
19.06.2018 15:00:00 23,1 9,9 4 2 14 8 NW 0,0
19.06.2018 14:00:00 22,2 10,4 6 3 15 8 WNW -
19.06.2018 13:00:00 21,7 10,2 9 5 16 9 NW 0,0
19.06.2018 12:00:00 21,1 12,3 3 2 11 6 WNW 0,0
19.06.2018 11:00:00 18,8 11,4 0 0 10 5 N 0,0
19.06.2018 10:00:00 17,2 11,7 3 2 9 5 NW 0,0
19.06.2018 09:00:00 15,6 11,8 4 2 9 5 NNW 0,0
19.06.2018 08:00:00 13,9 12,5 1 1 4 2 W -
19.06.2018 07:00:00 11,4 10,5 1 1 6 3 SSW 0,0
19.06.2018 06:00:00 10,8 9,9 3 1 7 4 ESE 0,0
19.06.2018 05:00:00 11,1 10,0 0 0 7 4 N 0,0
19.06.2018 04:00:00 11,5 10,1 1 0 6 3 ESE 0,0
19.06.2018 03:00:00 12,1 10,5 5 3 6 4 ESE 0,0
19.06.2018 02:00:00 13,9 11,2 0 0 3 2 N -
19.06.2018 01:00:00 - - - - - - - -
19.06.2018 00:00:00 16,8 9,3 3 2 12 6 S 0,0
18.06.2018 23:00:00 19,5 8,2 10 5 20 11 SSW 0,0
18.06.2018 22:00:00 21,0 8,6 10 5 17 9 SSW 0,0
18.06.2018 21:00:00 25,0 7,6 11 6 19 11 SW 0,0
18.06.2018 20:00:00 26,7 7,7 10 5 21 11 SW -
18.06.2018 19:00:00 27,2 9,1 9 5 22 12 WSW 0,0
18.06.2018 18:00:00 27,1 9,5 8 5 19 10 SSW 0,0
18.06.2018 17:00:00 26,9 7,9 5 3 21 12 SW 0,0
18.06.2018 16:00:00 26,5 9,4 5 3 16 9 SSW 0,0
18.06.2018 15:00:00 26,0 9,8 1 1 16 9 NNE 0,0
18.06.2018 14:00:00 - - 8 4 14 8 WSW -
18.06.2018 13:00:00 - - 7 4 16 9 SW 0,0
18.06.2018 12:00:00 - - 6 4 11 6 W 0,0
18.06.2018 11:00:00 - - 5 3 - - WSW -
18.06.2018 10:00:00 - - 2 1 8 5 WNW 0,0
18.06.2018 09:00:00 - - 6 3 9 5 WNW 0,0
18.06.2018 08:00:00 - - 3 2 5 3 SW -
18.06.2018 07:00:00 - - 0 0 5 3 S 0,0
18.06.2018 06:00:00 - - 0 0 4 2 N 0,0
18.06.2018 05:00:00 - - 0 0 9 5 S 0,0
18.06.2018 04:00:00 - - 3 2 11 6 ESE 0,0
18.06.2018 03:00:00 - - 2 1 9 5 ENE 0,0
18.06.2018 02:00:00 - - 8 4 13 7 ESE -
18.06.2018 01:00:00 - - 5 3 10 5 ESE 0,0
18.06.2018 00:00:00 - - 2 1 7 4 NNW 0,0
17.06.2018 23:00:00 - - 2 1 11 6 N 0,0
17.06.2018 22:00:00 - - 0 0 18 10 S 0,0
17.06.2018 21:00:00 - - 11 6 21 12 SSE 0,0
17.06.2018 20:00:00 - - 8 5 20 11 SE -
17.06.2018 19:00:00 - - 2 1 13 7 SSE 0,0
17.06.2018 18:00:00 - - 5 3 20 11 NW 0,0
17.06.2018 17:00:00 - - 6 3 19 10 WNW 0,0
17.06.2018 16:00:00 - - 2 1 16 9 S 0,0
17.06.2018 15:00:00 - - 8 4 19 10 WNW 0,0
17.06.2018 14:00:00 - - 5 3 18 10 W -
17.06.2018 13:00:00 - - 6 4 14 8 WSW 0,0
17.06.2018 12:00:00 - - 5 3 11 6 W 0,0
17.06.2018 11:00:00 - - 4 2 11 6 WNW 0,0
17.06.2018 10:00:00 - - 6 4 15 8 WSW 0,0
17.06.2018 09:00:00 - - 0 0 5 3 WNW 0,0
17.06.2018 08:00:00 - - 1 1 10 5 N -
17.06.2018 07:00:00 - - 7 4 10 5 SSW 0,0
17.06.2018 06:00:00 - - 1 1 5 3 SE 0,0
17.06.2018 05:00:00 - - 0 0 4 2 W 0,0
17.06.2018 04:00:00 - - 0 0 10 5 E 0,0
17.06.2018 03:00:00 - - 6 3 10 6 E 0,0
17.06.2018 02:00:00 - - 5 3 8 4 ESE -
17.06.2018 01:00:00 - - 0 0 18 10 SE 0,0
17.06.2018 00:00:00 - - 9 5 22 12 W 0,0
16.06.2018 23:00:00 - - 7 4 14 7 SE 0,0
16.06.2018 22:00:00 - - 10 5 18 10 ESE 0,0
16.06.2018 21:00:00 - - 10 5 21 11 ESE 0,0
16.06.2018 20:00:00 - - 13 7 24 13 SE -
16.06.2018 19:00:00 - - 12 7 22 12 SSE 0,0
16.06.2018 18:00:00 - - 10 6 24 13 SSE 0,0
16.06.2018 17:00:00 - - 11 6 22 12 SSE 0,0
16.06.2018 16:00:00 - - 10 6 21 11 SSE 0,0
16.06.2018 15:00:00 - - 6 3 17 9 ESE 0,0
16.06.2018 14:00:00 - - 9 5 17 9 E -
16.06.2018 13:00:00 - - 5 3 14 8 NW 0,0
16.06.2018 12:00:00 - - 4 2 11 6 NNE 0,0
16.06.2018 11:00:00 - - 2 1 7 4 NNW 0,0
16.06.2018 10:00:00 - - 3 2 7 4 WNW 0,0
16.06.2018 09:00:00 - - 5 3 8 5 ESE 0,0
16.06.2018 08:00:00 - - 5 3 10 5 E -
16.06.2018 07:00:00 - - 3 2 6 3 ESE 0,0
16.06.2018 06:00:00 - - 0 0 5 3 SSE 0,0
16.06.2018 05:00:00 - - 1 1 4 2 SE 0,0
16.06.2018 04:00:00 - - 0 0 3 2 N 0,0
16.06.2018 03:00:00 - - 0 0 4 2 N 0,0
16.06.2018 02:00:00 - - 0 0 4 2 E -
16.06.2018 01:00:00 - - 2 1 10 6 NW 0,0
16.06.2018 00:00:00 - - 3 2 26 14 W 0,0
15.06.2018 23:00:00 - - 8 4 29 15 WSW 0,0
15.06.2018 22:00:00 - - 4 2 7 4 S 0,0
15.06.2018 21:00:00 - - 3 2 15 8 WSW 0,0
15.06.2018 20:00:00 - - 3 2 14 8 W -
15.06.2018 19:00:00 - - 7 4 18 10 NW 0,0
15.06.2018 18:00:00 - - 7 4 21 11 WNW 0,0
15.06.2018 17:00:00 - - 3 2 22 12 WSW 0,0
15.06.2018 16:00:00 - - 6 3 24 13 NNW 0,0
15.06.2018 15:00:00 - - 5 3 16 9 N 0,0
15.06.2018 14:00:00 - - 7 4 19 10 WSW -
15.06.2018 13:00:00 - - 5 3 16 8 WNW 0,0
15.06.2018 12:00:00 - - 2 1 12 7 WNW 0,0
15.06.2018 11:00:00 - - 3 2 11 6 WNW 0,0
15.06.2018 10:00:00 - - 2 1 8 4 WNW 0,0
15.06.2018 09:00:00 - - 4 2 8 4 NW 0,0
15.06.2018 08:00:00 - - 0 0 2 1 S -
15.06.2018 07:00:00 - - 1 0 5 3 SE 0,0
15.06.2018 06:00:00 - - 2 1 7 4 SSE 0,0
15.06.2018 05:00:00 - - 4 2 6 3 ESE 0,0
15.06.2018 04:00:00 - - 2 1 5 3 ESE 0,0
15.06.2018 03:00:00 - - 0 0 7 4 SW 0,0
15.06.2018 02:00:00 - - 0 0 10 5 SSW -
15.06.2018 01:00:00 - - 4 2 10 5 NNW 0,0
15.06.2018 00:00:00 - - 1 1 13 7 S 0,0
14.06.2018 23:00:00 - - 4 2 7 4 E 0,0
14.06.2018 22:00:00 - - 3 1 16 9 WNW 0,0
14.06.2018 21:00:00 - - 9 5 19 11 ESE 0,0
14.06.2018 20:00:00 - - 14 7 25 14 SSE -
14.06.2018 19:00:00 - - 4 2 20 11 SE 0,0
14.06.2018 18:00:00 - - 5 3 17 9 E 0,0
14.06.2018 17:00:00 - - 5 3 20 11 WNW 0,0

tt = Température de l'air
td = dewpoint
ff = Vitesse du vent
fx = gusts
dd = Direction du vent
rr = Quantités de précipitations

stations d'obs. à proximité